Araruna, Brazil
Current Conditions -  °F | °C
As of 6:00 AM on Friday 28 Nov 2014 (Local Time) from SBMG Reporting Station
Clear Clear  
Wind Chill: 72°   Ceiling: Unl
Heat Index: 72°   Visibility: 6mi
Dew Point: 68°   Wind: 13mph
Humidity: 88%   Direction: 50°NE
Pressure: 29.88"   Gusts: NA
Location:  23.93°S, 52.5°W
Report Text: SBMG 280800Z 05011KT CAVOK 22/20 Q1012
Loading
Personal Weather Stations






























Interactive Weather Map New forecast layout! Learn more

10-Day Weather Forecast

Advertisements
Track Severe Weather on mobile